Latest Weather Observations for Coober Pedy Airport

IDS60801

Issued at 11:35 pm CDT Saturday 1 November 2014 (issued every 30 minutes, with the page automatically refreshed every 10 minutes)

About weather observations | Map of weather stations | Latest weather observations for SA | Other Formats
Station Details ID: 016090 Name: COOBER PEDY AIRPORT Lat: -29.03 Lon: 134.72 Height: 225.0 m
Data from the previous 72 hours. | See also: Recent months at Coober Pedy Airport
Date/Time
CDT
Temp
°C
App
Temp
°C
Dew
Point
Rel
Hum
%
Delta-T
°C
Wind Press
QNH
hPa
Press
MSL
hPa
Rain
since 9 am
mm
Dir
 
Spd
km/h
Gust
km/h
Spd
kts
Gust
kts
01/11:30pm 18.9 14.8 2.3 33 7.7 SE 13 17 7 9 1020.6 1019.5 0.0
01/11:00pm 19.6 14.8 2.5 32 8.0 SE 17 22 9 12 1020.3 1019.2 0.0
01/10:30pm 20.3 15.5 2.6 31 8.3 SSE 17 20 9 11 1020.1 1019.0 0.0
01/10:00pm 20.5 16.0 1.9 29 8.7 SE 15 19 8 10 1020.0 1018.9 0.0
01/09:30pm 21.0 16.4 1.3 27 9.1 SSE 15 19 8 10 1019.4 1018.3 0.0
01/09:00pm 21.7 17.3 0.3 24 9.7 SSE 13 15 7 8 1019.1 1018.0 0.0
01/08:30pm 22.6 16.9 -0.8 21 10.5 SSE 19 22 10 12 1018.7 1017.6 0.0
01/08:00pm 23.5 17.7 -1.4 19 11.1 SSE 19 24 10 13 1018.6 1017.5 0.0
01/07:30pm 24.4 17.9 -2.2 17 11.8 SSE 22 30 12 16 1018.2 1017.1 0.0
01/07:00pm 24.8 18.3 -2.7 16 12.1 S 22 28 12 15 1018.1 1017.0 0.0
01/06:30pm 25.3 18.4 -2.3 16 12.3 S 24 30 13 16 1017.9 1016.7 0.0
01/06:00pm 25.3 18.2 -1.5 17 12.1 S 26 37 14 20 1017.4 1016.2 0.0
01/05:30pm 25.5 18.5 -0.5 18 12.0 S 26 35 14 19 1017.1 1016.0 0.0
01/05:00pm 25.2 17.8 -0.8 18 11.9 S 28 39 15 21 1016.9 1015.8 0.0
01/04:30pm 25.0 18.2 0.5 20 11.5 S 26 44 14 24 1016.9 1015.8 0.0
01/04:00pm 24.9 18.1 1.1 21 11.3 S 26 41 14 22 1016.9 1015.8 0.0
01/03:30pm 23.9 17.7 2.1 24 10.4 S 24 39 13 21 1017.2 1016.1 0.0
01/03:00pm 23.9 17.2 3.8 27 9.9 S 28 44 15 24 1017.8 1016.6 0.0
01/02:41pm 23.3 16.6 3.8 28 9.6 S 28 52 15 28 1018.0 1016.9 0.0
01/02:30pm 22.8 16.9 3.9 29 9.3 S 24 37 13 20 1018.1 1017.0 0.0
01/02:00pm 23.0 16.5 4.5 30 9.2 S 28 44 15 24 1018.7 1017.6 0.0
01/01:30pm 21.8 14.5 4.4 32 8.6 S 32 41 17 22 1018.7 1017.6 0.0
01/01:00pm 21.9 14.9 6.2 36 8.0 S 32 44 17 24 1018.6 1017.5 0.0
01/12:30pm 21.0 14.0 6.2 38 7.5 S 32 41 17 22 1018.7 1017.6 0.0
01/12:00pm 20.6 14.4 7.9 44 6.6 S 30 46 16 25 1018.7 1017.6 0.0
01/11:30am 19.6 13.4 7.7 46 6.2 S 30 43 16 23 1019.2 1018.1 0.0
01/11:00am 19.1 12.5 8.4 50 5.6 S 33 44 18 24 1019.0 1017.9 0.0
01/10:30am 18.6 11.8 9.4 55 4.9 S 35 44 19 24 1018.9 1017.8 0.0
01/10:00am 17.6 10.5 9.5 59 4.3 S 37 50 20 27 1018.6 1017.8 0.0
01/09:30am 17.4 10.1 10.1 62 3.9 SSW 39 52 21 28 1018.4 1017.6 0.0
01/09:00am 16.9 8.7 10.3 65 3.5 S 44 54 24 29 1017.8 1017.0 4.0
01/08:30am 16.0 8.9 11.0 72 2.7 SSW 39 48 21 26 1017.4 1016.6 4.0
01/08:00am 15.9 9.7 11.5 75 2.4 SSW 35 46 19 25 1016.6 1015.8 4.0
01/07:30am 15.4 11.5 12.2 81 1.8 SSW 24 30 13 16 1016.2 1015.4 4.0
01/07:00am 14.9 10.6 11.9 82 1.6 SSW 26 32 14 17 1015.3 1014.5 4.0
01/06:30am 14.8 9.2 11.4 80 1.8 SSW 32 39 17 21 1014.8 1014.0 4.0
01/06:00am 15.0 8.9 11.6 80 1.8 SSW 35 46 19 25 1014.1 1013.3 4.0
01/05:30am 15.2 7.5 11.6 79 2.0 SSW 43 54 23 29 1013.3 1012.5 4.0
01/05:00am 15.1 7.3 11.7 80 1.9 SSW 44 56 24 30 1012.9 1012.0 4.0
01/04:30am 15.5 8.0 12.1 80 1.9 SSW 43 54 23 29 1012.6 1011.8 4.0
01/04:00am 16.1 9.3 13.0 82 1.7 SW 41 50 22 27 1012.2 1011.4 4.0
01/03:30am 16.7 11.4 14.2 85 1.4 SW 35 43 19 23 1012.0 1011.2 4.0
01/03:00am 17.4 12.2 14.5 83 1.7 SW 35 44 19 24 1011.7 1010.9 4.0
01/02:30am 17.7 12.3 13.8 78 2.2 SSW 35 44 19 24 1011.4 1010.6 4.0
01/02:00am 17.9 12.4 14.6 81 1.9 SSW 37 46 20 25 1011.1 1010.3 4.0
01/01:30am 18.2 13.4 15.5 84 1.6 SSW 35 46 19 25 1011.1 1010.3 4.0
01/01:00am 18.8 11.3 14.9 78 2.3 SSW 48 61 26 33 1010.6 1009.8 4.0
01/12:34am 20.8 16.1 15.8 73 3.0 SSW 35 54 19 29 1010.2 1009.4 4.0
01/12:30am 20.8 16.6 16.2 75 2.8 SSW 33 41 18 22 1010.2 1009.4 4.0
01/12:00am 21.1 18.5 17.9 82 2.0 SSW 28 35 15 19 1010.0 1009.2 4.0
 
Date/Time
CDT
Temp
°C
App
Temp
°C
Dew
Point
Rel
Hum
%
Delta-T
°C
Wind Press
QNH
hPa
Press
MSL
hPa
Rain
since 9 am
mm
Dir
 
Spd
km/h
Gust
km/h
Spd
kts
Gust
kts
31/11:30pm 21.3 20.3 17.9 81 2.1 WSW 20 24 11 13 1009.8 1009.0 4.0
31/11:00pm 21.7 19.5 16.9 74 3.0 WSW 24 30 13 16 1009.7 1008.9 4.0
31/10:30pm 22.1 19.8 16.6 71 3.4 W 24 28 13 15 1009.5 1008.7 4.0
31/10:14pm 22.7 20.3 15.5 64 4.4 NW 22 30 12 16 1008.5 1007.6 4.0
31/10:00pm 22.5 16.6 15.8 66 4.1 N 41 50 22 27 1006.7 1005.9 4.0
31/09:53pm 22.3 16.1 15.9 67 3.9 NNW 43 50 23 27 1007.3 1006.5 4.0
31/09:30pm 24.2 18.7 13.7 52 6.2 WNW 35 65 19 35 1008.1 1007.2 4.0
31/09:26pm 24.2 19.9 14.3 54 5.9 NW 30 54 16 29 1007.7 1006.9 4.0
31/09:00pm 21.1 17.0 17.3 79 2.4 WSW 35 52 19 28 1008.9 1008.0 3.8
31/08:30pm 22.3 17.8 17.4 74 3.1 SW 37 50 20 27 1009.4 1008.6 2.2
31/08:07pm 23.0 19.0 17.7 72 3.3 WSW 35 57 19 31 1009.6 1008.8 2.2
31/08:00pm 22.8 19.2 18.6 77 2.7 WSW 35 43 19 23 1009.3 1008.5 2.2
31/07:35pm 22.1 14.7 18.1 78 2.5 SW 54 72 29 39 1007.8 1007.0 1.0
31/07:30pm 22.4 14.5 17.8 75 2.9 SW 56 72 30 39 1007.3 1006.5 0.2
31/07:29pm 22.6 14.4 17.5 73 3.2 SW 57 72 31 39 1007.1 1006.3 0.0
31/07:23pm 27.4 12.8 13.0 41 8.5 SW 82 135 44 73 1006.0 1005.2 0.0
31/07:15pm 30.0 12.9 10.5 30 11.2 WSW 91 135 49 73 1003.9 1003.0 0.0
31/07:14pm 31.5 20.9 10.8 28 12.0 WNW 57 135 31 73 1003.1 1002.3 0.0
31/07:13pm 35.4 25.1 8.3 19 15.4 NW 52 83 28 45 1003.6 1002.7 0.0
31/07:07pm 35.6 26.3 7.6 18 15.8 NW 46 65 25 35 1002.7 1001.9 0.0
31/07:00pm 35.8 26.4 7.0 17 16.1 NW 46 59 25 32 1002.1 1001.3 0.0
31/06:30pm 37.7 28.9 3.4 12 18.4 NW 39 54 21 29 1001.5 1000.7 0.0
31/06:00pm 37.3 28.0 3.1 12 18.2 WNW 41 61 22 33 1001.0 1000.1 0.0
31/05:51pm 38.0 30.0 3.7 12 18.4 NW 35 61 19 33 1001.0 1000.1 0.0
31/05:30pm 38.1 30.1 3.8 12 18.6 WNW 35 50 19 27 1001.1 1000.2 0.0
31/05:06pm 38.3 31.3 3.9 12 18.6 WNW 30 48 16 26 1001.5 1000.7 0.0
31/05:00pm 38.3 30.9 3.9 12 18.6 WNW 32 46 17 25 1001.6 1000.8 0.0
31/04:44pm 38.4 30.8 4.0 12 18.6 WNW 33 52 18 28 1001.9 1001.1 0.0
31/04:30pm 37.8 30.0 4.7 13 18.1 WNW 35 52 19 28 1002.2 1001.4 0.0
31/04:00pm 37.9 30.3 5.8 14 17.8 WNW 35 44 19 24 1002.8 1002.0 0.0
31/03:36pm 37.6 29.8 6.6 15 17.4 WNW 37 56 20 30 1003.5 1002.6 0.0
31/03:30pm 36.5 28.3 6.6 16 16.7 WNW 39 56 21 30 1003.5 1002.6 0.0
31/03:00pm 37.3 29.4 6.3 15 17.3 WNW 37 50 20 27 1004.0 1003.1 0.0
31/02:30pm 36.4 28.6 6.6 16 16.7 WNW 37 52 20 28 1004.5 1003.6 0.0
31/02:00pm 36.4 29.0 6.6 16 16.6 WNW 35 48 19 26 1005.0 1004.1 0.0
31/01:45pm 36.8 29.6 5.9 15 17.1 WNW 33 54 18 29 1005.2 1004.3 0.0
31/01:30pm 36.2 29.1 6.4 16 16.6 NW 33 48 18 26 1005.6 1004.8 0.0
31/01:00pm 36.4 29.7 7.4 17 16.4 NW 32 50 17 27 1006.4 1005.6 0.0
31/12:49pm 36.2 29.5 7.3 17 16.3 NW 32 50 17 27 1006.7 1005.9 0.0
31/12:30pm 35.2 28.7 8.1 19 15.4 NW 32 46 17 25 1007.1 1006.3 0.0
31/12:00pm 34.3 27.6 8.1 20 14.8 NW 33 44 18 24 1007.5 1006.7 0.0
31/11:54am 34.5 28.4 8.3 20 14.9 NNW 30 39 16 21 1007.6 1006.8 0.0
31/11:49am 34.5 26.7 8.3 20 14.9 NW 39 44 21 24 1007.6 1006.8 0.0
31/11:30am 33.9 29.0 9.9 23 13.9 NNW 26 37 14 20 1007.8 1007.0 0.0
31/11:00am 31.9 26.1 9.4 25 12.8 NNW 30 43 16 23 1008.4 1007.5 0.0
31/10:30am 30.6 26.0 9.5 27 12.0 N 24 35 13 19 1008.6 1007.7 0.0
31/10:00am 27.8 24.8 10.5 34 9.9 N 17 24 9 13 1008.6 1007.7 0.0
31/09:30am 26.3 24.1 12.0 41 8.3 N 15 19 8 10 1008.7 1007.8 0.0
31/09:00am 24.9 23.2 12.5 46 7.2 NNE 13 15 7 8 1008.5 1007.6 0.0
31/08:30am 23.8 23.2 12.4 48 6.6 NNE 7 11 4 6 1008.7 1007.8 0.0
31/08:00am 22.9 22.1 11.6 49 6.4 N 7 9 4 5 1008.6 1007.7 0.0
31/07:30am 21.6 20.9 11.3 52 5.8 WSW 6 7 3 4 1008.2 1007.3 0.0
31/07:00am 21.2 20.0 11.5 54 5.4 WSW 9 11 5 6 1007.8 1007.0 0.0
31/06:30am 21.6 20.0 11.6 53 5.6 SW 11 13 6 7 1007.3 1006.5 0.0
31/06:00am 22.1 19.4 11.8 52 5.8 WSW 17 19 9 10 1007.1 1006.3 0.0
31/05:30am 22.4 19.7 11.8 51 6.0 W 17 19 9 10 1007.1 1006.3 0.0
31/05:00am 22.6 19.5 11.7 50 6.2 W 19 22 10 12 1007.2 1006.4 0.0
31/04:30am 23.1 20.1 12.1 50 6.3 W 19 24 10 13 1007.2 1006.4 0.0
31/04:00am 23.5 20.4 12.2 49 6.5 WNW 20 24 11 13 1007.5 1006.7 0.0
31/03:30am 24.1 18.7 12.1 47 6.9 WNW 32 43 17 23 1008.1 1007.2 0.0
31/03:00am 24.4 18.8 12.0 46 7.1 WNW 33 44 18 24 1008.6 1007.7 0.0
31/02:30am 24.7 18.8 11.3 43 7.6 NW 33 44 18 24 1009.0 1008.1 0.0
31/02:17am 24.9 19.6 11.1 42 7.8 NW 30 41 16 22 1009.3 1008.5 0.0
31/02:00am 24.6 21.8 11.5 44 7.5 NW 17 22 9 12 1009.2 1008.4 0.0
31/01:30am 24.2 22.0 13.4 51 6.4 N 17 20 9 11 1009.4 1008.6 0.0
31/01:00am 24.6 23.5 13.2 49 6.7 N 11 15 6 8 1009.2 1008.4 0.0
31/12:30am 24.7 20.8 13.3 49 6.7 W 26 32 14 17 1011.1 1010.3 0.0
31/12:00am 25.1 21.5 13.0 47 7.1 WNW 24 32 13 17 1011.2 1010.4 0.0
 
Date/Time
CDT
Temp
°C
App
Temp
°C
Dew
Point
Rel
Hum
%
Delta-T
°C
Wind Press
QNH
hPa
Press
MSL
hPa
Rain
since 9 am
mm
Dir
 
Spd
km/h
Gust
km/h
Spd
kts
Gust
kts
30/11:30pm 25.5 19.8 13.0 46 7.3 WNW 35 50 19 27 1011.7 1010.9 0.0
30/11:03pm 26.5 17.9 11.8 40 8.5 WNW 48 67 26 36 1012.2 1011.4 0.0
30/11:00pm 26.7 17.3 11.6 39 8.7 WNW 52 67 28 36 1012.3 1011.5 0.0
30/10:56pm 28.0 17.7 9.8 32 10.3 WNW 54 65 29 35 1012.2 1011.4 0.0
30/10:30pm 29.4 24.0 1.0 16 13.9 NNW 19 22 10 12 1011.9 1011.1 0.0
30/10:00pm 29.7 24.8 2.1 17 13.8 N 17 20 9 11 1011.6 1010.8 0.0
30/09:30pm 29.8 26.0 3.7 19 13.4 N 13 17 7 9 1011.2 1010.4 0.0
30/09:00pm 29.6 26.1 3.5 19 13.4 N 11 11 6 6 1010.7 1009.9 0.0
30/08:30pm 30.4 26.9 3.4 18 13.9 N 11 13 6 7 1010.3 1009.5 0.0
30/08:00pm 31.0 26.3 3.1 17 14.3 NNW 17 22 9 12 1010.1 1009.3 0.0
30/07:30pm 32.2 26.2 3.2 16 15.0 NNW 24 30 13 16 1009.8 1009.0 0.0
30/07:00pm 32.9 27.0 3.8 16 15.2 NW 24 33 13 18 1009.6 1008.8 0.0
30/06:30pm 33.3 27.3 3.2 15 15.7 NW 24 32 13 17 1009.7 1008.9 0.0
30/06:00pm 32.8 28.0 2.8 15 15.5 NW 17 26 9 14 1009.9 1009.1 0.0
30/05:30pm 33.4 26.4 -3.7 9 17.3 N 24 32 13 17 1010.0 1009.2 0.0
30/05:00pm 33.0 25.6 -7.3 7 17.6 N 24 33 13 18 1010.3 1009.5 0.0
30/04:30pm 33.4 24.5 -7.0 7 17.8 NNW 32 39 17 21 1010.6 1009.8 0.0
30/04:00pm 33.6 24.7 -6.9 7 17.9 NNW 32 39 17 21 1010.9 1010.1 0.0
30/03:30pm 34.1 25.1 -8.5 6 18.4 NNW 32 43 17 23 1011.3 1010.5 0.0
30/03:00pm 35.3 26.7 -7.7 6 19.0 N 30 41 16 22 1011.6 1010.8 0.0
30/02:30pm 34.2 25.9 -8.5 6 18.4 NNW 28 39 15 21 1011.9 1011.1 0.0
30/02:00pm 34.6 26.7 -8.2 6 18.6 N 26 35 14 19 1012.4 1011.6 0.0
30/01:30pm 34.5 27.0 -8.2 6 18.6 N 24 35 13 19 1013.0 1012.2 0.0
30/01:00pm 33.4 25.7 -7.0 7 17.8 N 26 35 14 19 1013.7 1012.9 0.0
30/12:30pm 32.8 25.4 -7.5 7 17.5 N 24 35 13 19 1014.0 1013.2 0.0
30/12:00pm 30.6 23.7 -5.8 9 16.0 N 22 30 12 16 1014.5 1013.7 0.0
30/11:30am 29.6 22.7 -6.6 9 15.5 N 22 28 12 15 1014.7 1013.9 0.0
30/11:00am 28.9 22.0 -5.7 10 15.0 NNE 22 26 12 14 1015.0 1014.2 0.0
30/10:30am 28.2 21.7 -6.3 10 14.7 NNE 20 26 11 14 1015.2 1014.4 0.0
30/10:00am 27.5 20.7 -5.6 11 14.2 NNE 22 28 12 15 1015.1 1014.3 0.0
30/09:30am 27.3 20.4 -5.7 11 14.1 NNE 22 28 12 15 1015.0 1014.2 0.0
30/09:00am 26.8 20.4 -4.9 12 13.7 NE 20 26 11 14 1015.0 1014.2 0.0
30/08:30am 24.9 19.4 -5.4 13 12.7 NNE 15 17 8 9 1015.0 1014.2 0.0
30/08:00am 23.6 18.9 -5.4 14 12.0 NE 11 15 6 8 1014.9 1014.1 0.0
30/07:30am 22.3 17.3 -4.7 16 11.2 NE 13 13 7 7 1014.7 1013.9 0.0
30/07:00am 20.0 14.8 -5.8 17 10.3 ENE 13 13 7 7 1014.5 1013.7 0.0
30/06:30am 19.6 14.0 -6.1 17 10.1 NE 15 15 8 8 1014.2 1013.4 0.0
30/06:00am 19.4 13.8 -6.2 17 10.0 ENE 15 17 8 9 1014.0 1013.2 0.0
30/05:30am 20.3 14.8 -5.5 17 10.4 ENE 15 17 8 9 1014.1 1013.3 0.0
30/05:00am 20.6 15.0 -6.1 16 10.6 NE 15 17 8 9 1014.1 1013.3 0.0
30/04:30am 20.2 15.0 -6.4 16 10.5 ENE 13 15 7 8 1013.6 1012.8 0.0
30/04:00am 21.8 16.2 -6.8 14 11.4 ESE 15 15 8 8 1013.8 1013.0 0.0
30/03:30am 21.8 16.5 -6.8 14 11.4 ESE 13 13 7 7 1013.9 1013.1 0.0
30/03:00am 22.9 18.4 -6.9 13 11.9 E 9 11 5 6 1014.1 1013.3 0.0
30/02:30am 23.3 17.7 -6.6 13 12.1 NE 15 17 8 9 1014.2 1013.4 0.0
30/02:00am 23.6 18.0 -6.4 13 12.2 NE 15 19 8 10 1014.3 1013.5 0.0
30/01:30am 24.4 18.8 -6.8 12 12.7 ENE 15 17 8 9 1014.5 1013.7 0.0
30/01:00am 25.0 19.3 -7.5 11 13.1 E 15 19 8 10 1014.8 1014.0 0.0
30/12:30am 25.4 19.3 -7.2 11 13.3 E 17 20 9 11 1015.0 1014.2 0.0
30/12:00am 25.3 19.2 -7.2 11 13.2 E 17 20 9 11 1015.1 1014.3 0.0

Other Formats:

Comma delimited format used in spreadsheet applications
http://www.bom.gov.au/fwo/IDS60801/IDS60801.95458.axf

JavaScript Object Notation format (JSON) in row-major order
http://www.bom.gov.au/fwo/IDS60801/IDS60801.95458.json